Time;durP1;ratioP1;P1;durP2;ratioP2;P2;SDS_P1;SDS_P2;PMS_P1;PMS_P2;Temp;Humidity;BMP_temperature;BMP_pressure;BME280_temperature;BME280_humidity;BME280_pressure;Samples;Min_cycle;Max_cycle;Signal;HPM_P1;HPM_P2
2021/04/13 00:01:14;;;;;;;15.52;11.30;;;1.00;99.90;;;;;;4936213;29;20191;-80
2021/04/13 00:03:57;;;;;;;15.77;9.63;;;0.90;99.90;;;;;;4903335;29;20199;-79
2021/04/13 00:06:48;;;;;;;14.18;10.60;;;1.20;99.90;;;;;;4933016;29;20241;-80
2021/04/13 00:09:26;;;;;;;14.93;11.60;;;1.20;99.90;;;;;;4944515;29;20338;-80
2021/04/13 00:12:00;;;;;;;17.20;10.48;;;1.30;99.90;;;;;;4944088;29;20187;-79
2021/04/13 00:14:33;;;;;;;17.77;10.98;;;1.20;99.90;;;;;;4944147;29;20187;-79
2021/04/13 00:17:11;;;;;;;14.23;10.35;;;1.40;99.90;;;;;;4936702;29;20220;-80
2021/04/13 00:20:15;;;;;;;16.70;11.75;;;0.90;99.90;;;;;;4942006;29;20228;-79
2021/04/13 00:22:42;;;;;;;17.33;12.32;;;1.30;99.90;;;;;;4928363;29;20644;-80
2021/04/13 00:25:21;;;;;;;16.92;10.48;;;0.90;99.90;;;;;;4922038;29;20716;-80
2021/04/13 00:27:49;;;;;;;15.30;11.65;;;0.90;99.90;;;;;;4927741;29;20581;-80
2021/04/13 00:30:22;;;;;;;15.85;11.10;;;1.10;99.90;;;;;;4917370;29;20633;-80
2021/04/13 00:33:03;;;;;;;13.55;10.77;;;1.40;99.90;;;;;;4929669;29;20189;-80
2021/04/13 00:35:36;;;;;;;16.30;11.65;;;1.10;99.90;;;;;;4935413;29;20222;-80
2021/04/13 00:38:16;;;;;;;12.63;10.10;;;0.80;99.90;;;;;;4933018;29;20182;-80
2021/04/13 00:40:44;;;;;;;15.98;10.80;;;1.10;99.90;;;;;;4936041;29;20513;-80
2021/04/13 00:43:14;;;;;;;16.73;11.85;;;1.20;99.90;;;;;;4919456;29;20281;-80
2021/04/13 00:45:47;;;;;;;16.50;11.77;;;1.10;99.90;;;;;;4935100;29;20184;-80
2021/04/13 00:48:26;;;;;;;16.77;11.90;;;0.70;99.90;;;;;;4919576;29;20613;-80
2021/04/13 00:51:02;;;;;;;16.08;11.48;;;1.10;99.90;;;;;;4919564;29;20530;-80
2021/04/13 00:53:32;;;;;;;15.95;11.02;;;0.70;99.90;;;;;;4919791;29;20228;-80
2021/04/13 00:56:03;;;;;;;14.05;10.68;;;0.70;99.90;;;;;;4935241;29;20242;-80
2021/04/13 00:58:45;;;;;;;20.77;11.93;;;0.80;99.90;;;;;;4937465;29;20185;-80
2021/04/13 01:01:17;;;;;;;16.15;11.07;;;0.70;99.90;;;;;;4939844;29;20233;-80
2021/04/13 01:04:01;;;;;;;15.93;11.65;;;0.90;99.90;;;;;;4939659;29;20280;-80
2021/04/13 01:06:36;;;;;;;17.45;12.73;;;0.90;99.90;;;;;;4939883;29;20523;-79
2021/04/13 01:09:17;;;;;;;19.92;13.27;;;0.90;99.90;;;;;;4940515;29;20533;-79
2021/04/13 01:11:48;;;;;;;20.83;13.85;;;0.70;99.90;;;;;;4942133;29;20241;-80
2021/04/13 01:14:15;;;;;;;21.63;13.15;;;1.20;99.90;;;;;;4958892;29;20196;-80
2021/04/13 01:16:54;;;;;;;20.95;12.65;;;1.00;99.90;;;;;;4958599;29;20554;-80
2021/04/13 01:19:46;;;;;;;19.80;12.80;;;0.40;99.90;;;;;;4954049;29;20193;-80
2021/04/13 01:22:50;;;;;;;22.50;14.05;;;1.00;99.90;;;;;;4939441;29;20201;-80
2021/04/13 01:25:19;;;;;;;19.55;12.35;;;0.90;99.90;;;;;;4954441;29;20199;-79
2021/04/13 01:28:08;;;;;;;20.73;13.73;;;0.90;99.90;;;;;;4944768;29;20233;-80
2021/04/13 01:30:48;;;;;;;21.63;13.30;;;0.80;99.90;;;;;;4919901;29;20226;-80
2021/04/13 01:33:22;;;;;;;23.70;12.40;;;0.90;99.90;;;;;;4923196;29;20241;-80
2021/04/13 01:35:56;;;;;;;19.23;12.68;;;0.80;99.90;;;;;;4939629;29;20210;-80
2021/04/13 01:43:38;;;;;;;22.08;13.13;;;0.80;99.90;;;;;;4941385;29;20274;-80
2021/04/13 01:46:08;;;;;;;17.85;12.05;;;0.70;99.90;;;;;;4939571;29;20179;-80
2021/04/13 01:48:35;;;;;;;18.88;12.35;;;0.40;99.90;;;;;;4929373;29;20285;-79
2021/04/13 01:51:04;;;;;;;19.63;13.02;;;0.40;99.90;;;;;;4938858;29;20661;-79
2021/04/13 01:53:36;;;;;;;21.38;13.10;;;0.90;99.90;;;;;;4948198;29;20280;-80
2021/04/13 01:56:12;;;;;;;21.70;14.77;;;0.50;99.90;;;;;;4955522;29;20239;-80
2021/04/13 01:58:45;;;;;;;21.55;12.25;;;0.90;99.90;;;;;;4936379;29;20179;-80
2021/04/13 02:01:21;;;;;;;18.73;11.73;;;0.70;99.90;;;;;;4938526;29;20624;-80
2021/04/13 02:04:02;;;;;;;17.70;13.20;;;0.40;99.90;;;;;;4938416;29;20174;-80
2021/04/13 02:06:42;;;;;;;22.23;13.80;;;0.30;99.90;;;;;;4938608;29;20261;-79
2021/04/13 02:09:27;;;;;;;20.25;13.75;;;0.40;99.90;;;;;;4938066;29;20178;-79
2021/04/13 02:12:04;;;;;;;20.00;12.40;;;0.70;99.90;;;;;;4918059;29;20204;-80
2021/04/13 02:14:36;;;;;;;21.67;15.13;;;0.70;99.90;;;;;;4926695;29;20251;-80
2021/04/13 02:17:12;;;;;;;21.17;13.68;;;0.60;99.90;;;;;;4922026;29;20330;-80
2021/04/13 02:19:49;;;;;;;25.83;13.82;;;0.80;99.90;;;;;;4903299;29;20234;-80
2021/04/13 02:22:18;;;;;;;23.90;14.07;;;0.80;99.90;;;;;;4914569;29;20193;-80
2021/04/13 02:24:44;;;;;;;22.60;13.85;;;0.50;99.90;;;;;;4925583;29;20185;-80
2021/04/13 02:27:20;;;;;;;17.38;12.95;;;0.20;99.90;;;;;;4947729;29;20276;-79
2021/04/13 02:29:50;;;;;;;22.95;14.35;;;0.70;99.90;;;;;;4894229;29;20593;-80
2021/04/13 02:32:28;;;;;;;19.33;13.63;;;0.60;99.90;;;;;;4901421;29;20196;-80
2021/04/13 02:35:16;;;;;;;20.35;14.10;;;0.20;99.90;;;;;;4930800;29;20226;-80
2021/04/13 02:37:50;;;;;;;23.25;14.73;;;0.50;99.90;;;;;;4928752;29;20171;-80
2021/04/13 02:40:44;;;;;;;19.85;14.13;;;0.30;99.90;;;;;;4955908;29;20183;-80
2021/04/13 02:43:16;;;;;;;19.63;13.27;;;0.60;99.90;;;;;;4936963;29;20214;-80
2021/04/13 02:45:49;;;;;;;24.88;13.05;;;0.30;99.90;;;;;;4923399;29;20177;-80
2021/04/13 02:48:40;;;;;;;20.23;12.90;;;0.40;99.90;;;;;;4934383;29;20192;-80
2021/04/13 02:51:12;;;;;;;18.13;13.10;;;0.60;99.90;;;;;;4936711;29;20185;-80
2021/04/13 02:53:51;;;;;;;24.40;13.50;;;0.00;99.90;;;;;;4936860;29;20189;-80
2021/04/13 02:56:22;;;;;;;18.35;12.65;;;0.50;99.90;;;;;;4955305;29;20232;-80
2021/04/13 02:59:05;;;;;;;18.77;12.00;;;0.40;99.90;;;;;;4918117;29;20186;-80
2021/04/13 03:01:34;;;;;;;20.00;12.48;;;0.40;99.90;;;;;;4922254;29;20180;-80
2021/04/13 03:04:05;;;;;;;19.17;13.48;;;0.10;99.90;;;;;;4937197;29;20210;-80
2021/04/13 03:06:37;;;;;;;20.15;13.02;;;0.50;99.90;;;;;;4951460;29;20608;-80
2021/04/13 03:09:08;;;;;;;26.45;13.80;;;0.40;99.90;;;;;;4937118;29;20212;-80
2021/04/13 03:11:36;;;;;;;21.80;13.13;;;0.40;99.90;;;;;;4936799;29;20207;-80
2021/04/13 03:14:08;;;;;;;17.73;11.77;;;0.50;99.90;;;;;;4937650;29;20187;-80
2021/04/13 03:16:43;;;;;;;28.00;14.40;;;0.30;99.90;;;;;;4943436;29;20291;-80
2021/04/13 03:19:12;;;;;;;19.05;12.38;;;0.10;99.90;;;;;;4921526;29;20191;-80
2021/04/13 03:21:44;;;;;;;20.52;13.10;;;0.50;99.90;;;;;;4938625;29;20196;-80
2021/04/13 03:24:17;;;;;;;24.10;14.63;;;0.30;99.90;;;;;;4938456;29;20188;-80
2021/04/13 03:26:49;;;;;;;20.75;13.80;;;0.40;99.90;;;;;;4950885;29;20191;-80
2021/04/13 03:29:33;;;;;;;20.60;13.33;;;-0.10;99.90;;;;;;4893314;29;608166;-80
2021/04/13 03:32:02;;;;;;;20.13;12.55;;;0.60;99.90;;;;;;4937381;29;20791;-80
2021/04/13 03:34:30;;;;;;;29.58;13.70;;;0.50;99.90;;;;;;4941748;29;20319;-80
2021/04/13 03:37:02;;;;;;;20.52;12.90;;;0.50;99.90;;;;;;4956414;29;20216;-80
2021/04/13 03:39:34;;;;;;;20.98;14.38;;;0.50;99.90;;;;;;4956155;29;20191;-80
2021/04/13 03:42:02;;;;;;;28.52;14.30;;;0.50;99.90;;;;;;4931008;29;20268;-80
2021/04/13 03:44:37;;;;;;;25.45;13.00;;;0.40;99.90;;;;;;4930782;29;20179;-80
2021/04/13 03:47:10;;;;;;;20.63;13.32;;;0.40;99.90;;;;;;4915309;29;20197;-79
2021/04/13 03:49:40;;;;;;;19.65;13.00;;;0.40;99.90;;;;;;4936852;29;20229;-80
2021/04/13 03:52:08;;;;;;;20.73;13.32;;;0.40;99.90;;;;;;4925396;29;20189;-80
2021/04/13 03:54:39;;;;;;;18.65;12.20;;;0.30;99.90;;;;;;4942359;29;20209;-80
2021/04/13 03:57:08;;;;;;;20.73;13.02;;;0.30;99.90;;;;;;4936863;29;20222;-80
2021/04/13 03:59:43;;;;;;;19.95;12.70;;;-0.10;99.90;;;;;;4936863;29;20258;-80
2021/04/13 04:02:10;;;;;;;19.15;13.15;;;0.30;99.90;;;;;;4936080;29;20721;-80
2021/04/13 04:04:39;;;;;;;22.92;12.90;;;0.50;99.90;;;;;;4936657;29;20203;-80
2021/04/13 04:09:51;;;;;;;19.52;12.80;;;0.40;99.90;;;;;;4955838;29;20242;-80
2021/04/13 04:12:25;;;;;;;15.65;11.60;;;0.00;99.90;;;;;;4951698;29;20841;-80
2021/04/13 04:15:09;;;;;;;20.33;13.13;;;0.50;99.90;;;;;;4936317;29;20167;-80
2021/04/13 04:17:45;;;;;;;16.63;10.80;;;0.40;99.90;;;;;;4950240;29;20199;-80
2021/04/13 04:20:13;;;;;;;16.48;11.45;;;0.30;99.90;;;;;;4916202;29;20201;-80
2021/04/13 04:23:13;;;;;;;17.48;11.40;;;0.20;99.90;;;;;;4942042;29;20710;-80
2021/04/13 04:25:46;;;;;;;21.05;13.15;;;-0.10;99.90;;;;;;4938748;29;20202;-80
2021/04/13 04:28:40;;;;;;;23.67;13.30;;;0.20;99.90;;;;;;4919528;29;20238;-80
2021/04/13 04:31:39;;;;;;;20.20;13.10;;;0.20;99.90;;;;;;4938192;29;20203;-80
2021/04/13 04:34:14;;;;;;;18.75;11.93;;;0.30;99.90;;;;;;4918163;29;20618;-80
2021/04/13 04:36:49;;;;;;;17.42;11.70;;;0.20;99.90;;;;;;4923468;29;20284;-80
2021/04/13 04:39:32;;;;;;;19.88;14.27;;;0.20;99.90;;;;;;4950694;29;20526;-79
2021/04/13 04:42:06;;;;;;;19.00;12.73;;;0.20;99.90;;;;;;4956583;29;20569;-80
2021/04/13 04:44:35;;;;;;;19.90;12.20;;;-0.20;99.90;;;;;;4939344;29;20172;-80
2021/04/13 04:47:01;;;;;;;21.92;12.60;;;0.10;99.90;;;;;;4948651;29;20189;-80
2021/04/13 04:49:39;;;;;;;20.65;13.75;;;0.00;99.90;;;;;;4959254;29;20197;-80
2021/04/13 04:52:06;;;;;;;20.30;13.88;;;0.20;99.90;;;;;;4930962;29;20185;-80
2021/04/13 04:54:35;;;;;;;24.85;14.00;;;0.20;99.90;;;;;;4939620;29;20201;-80
2021/04/13 04:57:04;;;;;;;20.38;13.05;;;-0.30;99.90;;;;;;4939466;29;20219;-80
2021/04/13 04:59:30;;;;;;;23.38;14.48;;;0.10;99.90;;;;;;4907594;29;20187;-80
2021/04/13 05:01:56;;;;;;;21.63;13.50;;;-0.40;99.90;;;;;;4939473;29;20197;-79
2021/04/13 05:04:22;;;;;;;17.95;11.57;;;0.10;99.90;;;;;;4938940;29;20966;-79
2021/04/13 05:06:53;;;;;;;25.98;13.45;;;-0.30;99.90;;;;;;4940410;29;20528;-79
2021/04/13 05:09:21;;;;;;;20.13;13.32;;;-0.20;99.90;;;;;;4922799;29;20189;-80
2021/04/13 05:11:49;;;;;;;19.98;12.75;;;-0.20;99.90;;;;;;4954851;29;20207;-79
2021/04/13 05:14:18;;;;;;;26.70;13.68;;;0.10;99.90;;;;;;4940270;29;20192;-80
2021/04/13 05:16:46;;;;;;;22.60;14.05;;;0.40;99.90;;;;;;4943208;29;20224;-80
2021/04/13 05:19:12;;;;;;;21.97;13.83;;;0.10;99.90;;;;;;4939812;29;20515;-80
2021/04/13 05:21:41;;;;;;;22.90;14.23;;;0.50;99.90;;;;;;4924626;29;20434;-80
2021/04/13 05:24:09;;;;;;;19.35;13.77;;;0.50;99.90;;;;;;4906914;29;20268;-80
2021/04/13 05:26:35;;;;;;;23.75;14.88;;;0.80;99.90;;;;;;4938011;29;20191;-80
2021/04/13 05:29:07;;;;;;;19.67;13.10;;;0.60;99.90;;;;;;4947399;29;20232;-83
2021/04/13 05:31:34;;;;;;;22.20;14.13;;;0.40;99.90;;;;;;4952030;29;20771;-84
2021/04/13 05:34:03;;;;;;;21.75;13.85;;;0.40;99.90;;;;;;4948109;29;20197;-84
2021/04/13 05:36:36;;;;;;;23.80;15.43;;;0.90;99.90;;;;;;4939328;29;20351;-83
2021/04/13 05:39:05;;;;;;;20.98;14.35;;;1.00;99.90;;;;;;4936312;29;20186;-81
2021/04/13 05:41:34;;;;;;;20.88;14.00;;;0.60;99.90;;;;;;4949923;29;20205;-80
2021/04/13 05:44:05;;;;;;;20.65;13.90;;;1.10;99.90;;;;;;4956039;28;20630;-81
2021/04/13 05:46:32;;;;;;;18.33;13.40;;;1.10;99.90;;;;;;4926526;29;20198;-81
2021/04/13 05:49:03;;;;;;;20.80;13.88;;;1.30;99.90;;;;;;4942537;29;20611;-82
2021/04/13 05:51:34;;;;;;;21.23;14.13;;;1.50;99.90;;;;;;4938825;29;20279;-82
2021/04/13 05:54:04;;;;;;;28.45;15.55;;;1.30;99.90;;;;;;4922181;29;20191;-82
2021/04/13 05:56:38;;;;;;;23.98;15.25;;;1.70;99.90;;;;;;4949841;29;20283;-81
2021/04/13 05:59:13;;;;;;;24.20;14.23;;;1.40;99.90;;;;;;4931195;29;20233;-81
2021/04/13 06:01:40;;;;;;;20.30;13.68;;;1.90;99.90;;;;;;4957906;29;20180;-81
2021/04/13 06:04:10;;;;;;;22.10;14.20;;;1.70;99.90;;;;;;4934828;29;20621;-81
2021/04/13 06:06:43;;;;;;;21.85;14.15;;;1.60;99.90;;;;;;4921936;29;20613;-81
2021/04/13 06:09:12;;;;;;;19.63;13.43;;;2.10;99.90;;;;;;4909488;29;20222;-81
2021/04/13 06:11:45;;;;;;;17.10;12.40;;;2.00;99.90;;;;;;4923703;29;20190;-80
2021/04/13 06:14:14;;;;;;;19.98;14.13;;;1.50;99.90;;;;;;4943600;29;20187;-80
2021/04/13 06:16:44;;;;;;;21.10;14.32;;;2.20;99.90;;;;;;4938363;29;20298;-80
2021/04/13 06:19:10;;;;;;;18.80;13.77;;;2.10;99.90;;;;;;4948364;29;20221;-80
2021/04/13 06:21:38;;;;;;;17.65;12.10;;;2.20;99.90;;;;;;4941948;29;20192;-80
2021/04/13 06:24:18;;;;;;;20.92;14.25;;;1.90;99.90;;;;;;4924333;29;20567;-82
2021/04/13 06:26:53;;;;;;;19.40;13.50;;;2.10;99.90;;;;;;4950779;29;20196;-81
2021/04/13 06:29:24;;;;;;;18.83;13.50;;;2.50;99.90;;;;;;4952517;29;20278;-81
2021/04/13 06:31:52;;;;;;;20.58;13.20;;;2.60;99.90;;;;;;4922121;29;20172;-81
2021/04/13 06:34:18;;;;;;;21.38;13.70;;;2.70;99.90;;;;;;4945331;29;20531;-81
2021/04/13 06:36:46;;;;;;;23.02;14.20;;;2.70;99.90;;;;;;4944861;29;20211;-80
2021/04/13 06:39:14;;;;;;;18.80;12.57;;;2.80;99.90;;;;;;4934269;29;20188;-79
2021/04/13 06:41:58;;;;;;;18.63;13.68;;;3.00;99.90;;;;;;4942692;29;20192;-81
2021/04/13 06:44:40;;;;;;;20.13;14.48;;;2.90;99.90;;;;;;4913288;29;20191;-82
2021/04/13 06:47:27;;;;;;;21.48;14.77;;;2.90;99.90;;;;;;4940473;29;20580;-82
2021/04/13 06:50:23;;;;;;;24.00;15.20;;;3.10;99.90;;;;;;4927176;29;20637;-80
2021/04/13 06:53:16;;;;;;;24.65;15.00;;;2.90;99.90;;;;;;4939269;29;20196;-80
2021/04/13 06:55:51;;;;;;;23.08;15.40;;;3.00;99.90;;;;;;4938541;28;20225;-79
2021/04/13 06:58:34;;;;;;;18.17;12.85;;;2.80;99.90;;;;;;4936181;29;20200;-80
2021/04/13 07:01:09;;;;;;;20.40;14.57;;;2.80;99.90;;;;;;4926581;29;20842;-79
2021/04/13 07:03:49;;;;;;;24.92;14.32;;;2.90;99.90;;;;;;4918611;29;20183;-79
2021/04/13 07:07:12;;;;;;;23.75;14.52;;;3.10;99.90;;;;;;4922149;29;20204;-78
2021/04/13 07:09:46;;;;;;;18.42;13.18;;;3.20;99.90;;;;;;4934083;29;20276;-79
2021/04/13 07:12:25;;;;;;;21.08;12.95;;;3.30;99.90;;;;;;4935590;29;20192;-78
2021/04/13 07:15:06;;;;;;;19.77;12.98;;;3.50;99.90;;;;;;4937645;29;20205;-78
2021/04/13 07:18:10;;;;;;;17.05;11.90;;;3.60;99.90;;;;;;4938735;29;20290;-78
2021/04/13 07:21:07;;;;;;;15.30;12.15;;;3.70;99.90;;;;;;4912973;29;20629;-78
2021/04/13 07:23:49;;;;;;;16.33;11.45;;;3.90;99.90;;;;;;4937088;29;20189;-79
2021/04/13 07:26:24;;;;;;;17.08;11.68;;;4.00;99.90;;;;;;4929371;29;20681;-79
2021/04/13 07:29:11;;;;;;;19.70;13.18;;;4.10;99.90;;;;;;4932011;29;20260;-80
2021/04/13 07:31:51;;;;;;;20.90;12.30;;;4.10;99.90;;;;;;4934110;29;20231;-79
2021/04/13 07:34:19;;;;;;;15.80;11.48;;;4.20;99.90;;;;;;4939638;29;20196;-79
2021/04/13 07:37:03;;;;;;;16.52;11.90;;;4.30;99.90;;;;;;4934988;29;20204;-79
2021/04/13 07:39:33;;;;;;;19.73;11.75;;;4.50;99.90;;;;;;4934929;29;20191;-78
2021/04/13 07:42:08;;;;;;;22.85;11.00;;;4.60;99.90;;;;;;4927132;29;20196;-79
2021/04/13 07:45:09;;;;;;;16.67;11.23;;;4.60;99.90;;;;;;4934534;29;20278;-80
2021/04/13 07:48:09;;;;;;;16.30;10.88;;;4.70;99.90;;;;;;4934917;29;20180;-79
2021/04/13 07:50:56;;;;;;;18.65;10.82;;;4.80;99.90;;;;;;4927313;29;20328;-80
2021/04/13 07:53:27;;;;;;;25.33;11.93;;;4.80;99.90;;;;;;4927271;29;20275;-80
2021/04/13 07:56:27;;;;;;;18.75;10.63;;;4.90;99.90;;;;;;4911719;29;20212;-79
2021/04/13 07:59:19;;;;;;;18.27;11.70;;;5.00;99.90;;;;;;4910511;29;20243;-80
2021/04/13 08:01:47;;;;;;;15.63;10.43;;;5.00;99.90;;;;;;4931635;29;20524;-80
2021/04/13 08:04:19;;;;;;;19.67;10.75;;;5.20;99.90;;;;;;4934359;29;20625;-78
2021/04/13 08:06:53;;;;;;;24.35;11.35;;;5.30;99.90;;;;;;4898822;29;20185;-80
2021/04/13 08:09:36;;;;;;;16.90;10.35;;;5.40;99.90;;;;;;4926761;29;20184;-80
2021/04/13 08:12:11;;;;;;;17.80;11.52;;;5.60;99.90;;;;;;4904251;29;20188;-80
2021/04/13 08:15:02;;;;;;;24.30;11.45;;;5.70;99.90;;;;;;4913250;29;20264;-79
2021/04/13 08:17:36;;;;;;;17.30;10.55;;;6.00;99.90;;;;;;4928616;29;20318;-79
2021/04/13 08:20:14;;;;;;;18.02;10.27;;;6.10;99.90;;;;;;4920371;29;20198;-77
2021/04/13 08:23:10;;;;;;;15.05;11.50;;;6.30;99.90;;;;;;4918336;29;20200;-77
2021/04/13 08:25:48;;;;;;;21.92;11.05;;;6.50;99.90;;;;;;4934037;29;20211;-78
2021/04/13 08:28:28;;;;;;;21.88;10.40;;;6.70;99.90;;;;;;4934341;29;20242;-79
2021/04/13 08:33:58;;;;;;;16.23;8.93;;;7.50;99.90;;;;;;4933102;29;20197;-79
2021/04/13 08:36:45;;;;;;;13.50;8.90;;;8.00;99.90;;;;;;4926788;29;20633;-79
2021/04/13 08:39:25;;;;;;;14.20;8.27;;;8.20;99.90;;;;;;4931948;29;20923;-79
2021/04/13 08:42:17;;;;;;;11.27;6.50;;;8.50;99.90;;;;;;4912350;29;20439;-79
2021/04/13 08:44:59;;;;;;;8.33;6.00;;;8.80;99.90;;;;;;4926102;29;20439;-79
2021/04/13 08:47:45;;;;;;;10.53;5.90;;;8.80;99.90;;;;;;4926496;29;20439;-80
2021/04/13 08:50:40;;;;;;;13.40;6.17;;;9.00;99.90;;;;;;4926314;29;20463;-80
2021/04/13 08:53:26;;;;;;;12.47;5.50;;;9.20;99.90;;;;;;4891715;29;20446;-80
2021/04/13 08:56:11;;;;;;;7.87;5.20;;;8.90;99.90;;;;;;4926109;29;21086;-79
2021/04/13 08:58:56;;;;;;;11.60;4.60;;;8.70;99.90;;;;;;4928578;29;20451;-79
2021/04/13 09:01:41;;;;;;;5.37;4.30;;;8.40;99.90;;;;;;4926278;29;20473;-78
2021/04/13 09:04:31;;;;;;;7.07;3.13;;;8.30;99.90;;;;;;4933492;29;20439;-79
2021/04/13 09:07:11;;;;;;;5.17;3.03;;;8.00;99.90;;;;;;4927755;29;20918;-78
2021/04/13 09:09:57;;;;;;;7.68;3.50;;;7.80;99.90;;;;;;4933052;29;20448;-80
2021/04/13 09:12:37;;;;;;;8.77;3.30;;;8.00;99.90;;;;;;4926065;29;20648;-80
2021/04/13 09:15:23;;;;;;;7.83;3.67;;;8.10;99.90;;;;;;4918406;29;20290;-81
2021/04/13 09:17:49;;;;;;;3.85;3.45;;;8.40;99.50;;;;;;4930857;29;20529;-79
2021/04/13 09:20:42;;;;;;;6.50;3.60;;;8.60;98.10;;;;;;4935383;29;20188;-79
2021/04/13 09:23:44;;;;;;;4.80;4.13;;;9.10;97.30;;;;;;4926661;29;20429;-79
2021/04/13 09:26:25;;;;;;;4.40;4.00;;;9.50;98.40;;;;;;4938141;29;20444;-80
2021/04/13 09:28:57;;;;;;;5.10;3.07;;;10.00;95.80;;;;;;4931854;29;20819;-80
2021/04/13 09:31:45;;;;;;;4.47;3.63;;;10.20;94.20;;;;;;4935445;29;20447;-81
2021/04/13 09:34:52;;;;;;;5.13;3.97;;;10.30;95.10;;;;;;4931613;29;20541;-81
2021/04/13 09:41:17;;;;;;;6.33;5.77;;;10.20;93.90;;;;;;4930955;29;20765;-80
2021/04/13 09:44:04;;;;;;;7.70;5.10;;;10.00;93.60;;;;;;4923647;29;20909;-80
2021/04/13 09:47:19;;;;;;;8.90;4.20;;;9.60;95.20;;;;;;4915876;29;20434;-80
2021/04/13 09:50:23;;;;;;;5.60;5.03;;;9.60;95.90;;;;;;4936161;29;20430;-80
2021/04/13 09:53:12;;;;;;;7.63;4.50;;;10.00;95.10;;;;;;4933253;29;20774;-80
2021/04/13 09:56:04;;;;;;;4.53;4.13;;;10.30;91.30;;;;;;4935231;29;20486;-81
2021/04/13 09:59:00;;;;;;;9.07;4.60;;;10.50;90.00;;;;;;4917962;29;20432;-83
2021/04/13 10:01:43;;;;;;;4.80;3.97;;;10.60;91.00;;;;;;4929835;29;20521;-82
2021/04/13 10:04:26;;;;;;;4.83;4.33;;;11.10;92.70;;;;;;4936964;29;20436;-81
2021/04/13 10:07:17;;;;;;;12.00;6.33;;;11.50;90.70;;;;;;4908486;29;20432;-82
2021/04/13 10:09:49;;;;;;;7.00;4.47;;;11.50;85.70;;;;;;4933254;29;20486;-81
2021/04/13 10:12:27;;;;;;;7.67;4.50;;;11.20;88.40;;;;;;4937297;29;20456;-80
2021/04/13 10:15:17;;;;;;;10.07;5.63;;;10.90;91.00;;;;;;4936413;29;20467;-83
2021/04/13 10:17:58;;;;;;;6.23;4.83;;;10.60;89.60;;;;;;4895591;29;20446;-83
2021/04/13 10:21:17;;;;;;;5.00;4.37;;;10.60;90.90;;;;;;4912924;29;20435;-84
2021/04/13 10:23:57;;;;;;;6.27;5.07;;;11.20;91.60;;;;;;4932407;29;20435;-83
2021/04/13 10:26:45;;;;;;;8.33;5.30;;;11.50;90.80;;;;;;4937713;29;20492;-82
2021/04/13 10:29:43;;;;;;;6.80;5.33;;;11.50;89.50;;;;;;4936514;29;20468;-82
2021/04/13 10:32:36;;;;;;;7.03;4.50;;;10.90;89.10;;;;;;4934656;29;20512;-79
2021/04/13 10:35:27;;;;;;;6.90;6.20;;;10.60;87.30;;;;;;4936660;29;20435;-79
2021/04/13 10:38:43;;;;;;;8.63;4.10;;;10.20;87.60;;;;;;4929930;29;20475;-81
2021/04/13 10:41:38;;;;;;;5.33;4.93;;;9.90;87.80;;;;;;4896156;29;20447;-80
2021/04/13 10:44:09;;;;;;;9.00;5.80;;;10.00;88.60;;;;;;4922460;29;20431;-80
2021/04/13 10:46:55;;;;;;;5.33;4.93;;;10.60;88.30;;;;;;4932398;29;20460;-79
2021/04/13 10:50:05;;;;;;;7.60;5.10;;;11.20;84.30;;;;;;4935586;29;20931;-79
2021/04/13 10:52:52;;;;;;;6.37;5.70;;;11.70;81.40;;;;;;4935612;29;20443;-82
2021/04/13 10:55:33;;;;;;;6.83;6.23;;;11.90;78.70;;;;;;4938496;29;20949;-82
2021/04/13 10:58:08;;;;;;;5.80;5.40;;;11.60;82.60;;;;;;4923740;29;20519;-82
2021/04/13 11:00:56;;;;;;;9.27;5.43;;;11.00;84.90;;;;;;4921498;29;20423;-81
2021/04/13 11:03:53;;;;;;;9.33;5.40;;;10.80;88.70;;;;;;4925728;29;20441;-78
2021/04/13 11:06:28;;;;;;;6.00;5.50;;;10.60;90.40;;;;;;4917697;29;20815;-79
2021/04/13 11:09:20;;;;;;;6.80;6.00;;;10.30;90.10;;;;;;4934645;29;20440;-80
2021/04/13 11:11:55;;;;;;;9.60;5.60;;;10.10;91.10;;;;;;4931672;29;20428;-81
2021/04/13 11:15:03;;;;;;;9.33;6.17;;;9.80;91.90;;;;;;4933317;29;20438;-80
2021/04/13 11:17:50;;;;;;;5.10;4.70;;;10.00;91.20;;;;;;4931726;29;20459;-83
2021/04/13 11:20:24;;;;;;;4.50;4.00;;;10.60;90.20;;;;;;4927540;29;20443;-82
2021/04/13 11:23:23;;;;;;;6.03;4.63;;;11.40;87.80;;;;;;4938092;29;20429;-82
2021/04/13 11:26:08;;;;;;;5.30;5.00;;;11.60;80.90;;;;;;4928998;29;20443;-80
2021/04/13 11:28:58;;;;;;;5.97;4.97;;;11.90;75.70;;;;;;4934915;29;20866;-80
2021/04/13 11:31:55;;;;;;;5.07;4.67;;;12.30;72.30;;;;;;4918515;29;20433;-80
2021/04/13 11:34:36;;;;;;;10.60;5.33;;;12.50;70.50;;;;;;4905264;29;20778;-81
2021/04/13 11:37:20;;;;;;;4.60;4.30;;;12.50;68.30;;;;;;4918024;29;20462;-81
2021/04/13 11:40:08;;;;;;;5.73;4.70;;;12.30;69.10;;;;;;4914315;29;20518;-82
2021/04/13 11:42:42;;;;;;;5.13;4.50;;;12.00;73.50;;;;;;4925008;29;20504;-80
2021/04/13 11:45:26;;;;;;;6.70;5.07;;;11.70;73.10;;;;;;4933977;29;20517;-80
2021/04/13 11:48:11;;;;;;;7.63;6.07;;;11.30;76.60;;;;;;4932241;29;20529;-80
2021/04/13 11:51:04;;;;;;;10.30;7.40;;;11.20;76.70;;;;;;4928170;29;20810;-80
2021/04/13 11:53:38;;;;;;;6.33;5.93;;;10.90;78.60;;;;;;4927803;29;20436;-79
2021/04/13 11:56:22;;;;;;;8.20;5.60;;;10.80;76.50;;;;;;4921875;29;20617;-79
2021/04/13 11:59:13;;;;;;;7.27;6.37;;;10.60;74.50;;;;;;4943502;29;20427;-79
2021/04/13 12:01:47;;;;;;;7.57;6.80;;;10.60;75.70;;;;;;4933470;29;20935;-80
2021/04/13 12:04:17;;;;;;;9.87;6.57;;;11.00;77.30;;;;;;4911407;29;20441;-80
2021/04/13 12:11:15;;;;;;;8.00;4.40;;;12.30;66.00;;;;;;4942746;23;20479;-71
2021/04/13 12:13:47;;;;;;;6.60;5.80;;;12.50;64.30;;;;;;4940045;28;20466;-71
2021/04/13 12:16:46;;;;;;;6.33;5.70;;;12.20;69.30;;;;;;4962032;28;20462;-71
2021/04/13 12:19:20;;;;;;;6.83;6.13;;;11.80;68.90;;;;;;4952836;28;20446;-71
2021/04/13 12:21:52;;;;;;;8.00;5.20;;;11.70;68.40;;;;;;4944487;28;20501;-71
2021/04/13 12:24:42;;;;;;;5.33;4.83;;;11.90;71.50;;;;;;4940328;28;20799;-71
2021/04/13 12:27:34;;;;;;;7.23;5.80;;;12.40;67.80;;;;;;4958674;28;20942;-71
2021/04/13 12:30:32;;;;;;;7.47;6.10;;;13.00;65.90;;;;;;4948168;28;20527;-71
2021/04/13 12:32:59;;;;;;;7.27;5.30;;;13.30;58.30;;;;;;4979455;28;20938;-71
2021/04/13 12:35:46;;;;;;;7.80;6.00;;;13.50;57.70;;;;;;4984404;28;20445;-71
2021/04/13 12:38:34;;;;;;;5.90;5.30;;;13.50;57.90;;;;;;4984726;28;20471;-71
2021/04/13 12:41:21;;;;;;;8.27;6.60;;;13.80;58.10;;;;;;4938856;28;20936;-72
2021/04/13 12:43:57;;;;;;;6.20;5.63;;;14.20;58.90;;;;;;4966873;28;20445;-72
2021/04/13 12:46:31;;;;;;;6.17;5.57;;;14.30;58.40;;;;;;4962421;28;20427;-69
2021/04/13 12:49:04;;;;;;;6.03;5.50;;;14.50;56.50;;;;;;4963138;28;20442;-69
2021/04/13 12:51:48;;;;;;;7.43;5.43;;;14.70;53.80;;;;;;4958867;28;20875;-72
2021/04/13 12:54:26;;;;;;;5.00;4.50;;;14.90;54.10;;;;;;4960461;28;20461;-72
2021/04/13 12:57:20;;;;;;;5.50;5.00;;;14.80;54.50;;;;;;4956896;28;20468;-72
2021/04/13 13:00:06;;;;;;;9.37;5.03;;;14.50;55.40;;;;;;4962996;28;20451;-72
2021/04/13 13:02:43;;;;;;;6.07;5.57;;;14.20;57.90;;;;;;4964599;28;20440;-71
2021/04/13 13:05:22;;;;;;;5.90;4.83;;;13.50;56.90;;;;;;4966217;28;20444;-68
2021/04/13 13:08:02;;;;;;;5.23;4.70;;;13.10;58.50;;;;;;4961382;28;20455;-70
2021/04/13 13:10:37;;;;;;;4.77;4.40;;;13.40;60.80;;;;;;4952192;28;20433;-66
2021/04/13 13:13:10;;;;;;;6.70;5.40;;;13.80;58.90;;;;;;4966182;28;20540;-70
2021/04/13 13:15:40;;;;;;;5.37;4.93;;;13.90;54.20;;;;;;4986592;28;20438;-70
2021/04/13 13:18:27;;;;;;;7.90;4.80;;;13.80;51.40;;;;;;4957123;28;20488;-70
2021/04/13 13:20:57;;;;;;;4.80;4.47;;;14.00;53.40;;;;;;4986266;28;20905;-70
2021/04/13 13:23:38;;;;;;;5.77;5.47;;;14.60;53.40;;;;;;4966627;28;20448;-70
2021/04/13 13:26:27;;;;;;;6.47;5.97;;;14.90;53.70;;;;;;4984929;28;20434;-69
2021/04/13 13:28:53;;;;;;;6.87;6.37;;;15.20;51.20;;;;;;4984850;28;20429;-70
2021/04/13 13:31:37;;;;;;;7.57;6.60;;;15.60;50.10;;;;;;4958602;28;20528;-70
2021/04/13 13:34:05;;;;;;;5.57;5.17;;;15.90;50.10;;;;;;4953608;28;20461;-70
2021/04/13 13:36:41;;;;;;;6.47;6.00;;;15.50;48.50;;;;;;4945160;28;20467;-70
2021/04/13 13:39:17;;;;;;;5.03;4.73;;;15.20;50.00;;;;;;4983253;28;20445;-69
2021/04/13 13:41:49;;;;;;;5.43;5.00;;;14.80;51.00;;;;;;4986732;28;20449;-67
2021/04/13 13:44:40;;;;;;;5.17;4.37;;;14.30;48.10;;;;;;4958451;28;20861;-70
2021/04/13 13:47:20;;;;;;;5.17;4.70;;;13.80;48.00;;;;;;4981293;28;20436;-72
2021/04/13 13:49:52;;;;;;;6.37;5.77;;;13.70;49.80;;;;;;4964152;28;20436;-70
2021/04/13 13:52:44;;;;;;;4.10;3.90;;;14.00;49.00;;;;;;4969709;28;20433;-68
2021/04/13 13:55:16;;;;;;;6.40;5.90;;;13.80;48.70;;;;;;4943039;28;20448;-69
2021/04/13 13:58:03;;;;;;;5.87;5.47;;;13.20;50.40;;;;;;4956463;28;20465;-69
2021/04/13 14:00:47;;;;;;;5.93;5.50;;;12.70;51.20;;;;;;4971649;28;20502;-72